Time;durP1;ratioP1;P1;durP2;ratioP2;P2;SDS_P1;SDS_P2;PMS_P1;PMS_P2;Temp;Humidity;BMP_temperature;BMP_pressure;BME280_temperature;BME280_humidity;BME280_pressure;Samples;Min_cycle;Max_cycle;Signal;HPM_P1;HPM_P2
2023/06/19 00:02:06;;;;;;;5.38;4.28;;;22.70;99.90;;;;;;4957719;28;20387;-36
2023/06/19 00:04:32;;;;;;;5.90;4.57;;;22.70;99.90;;;;;;4959066;28;23703;-35
2023/06/19 00:06:59;;;;;;;5.32;4.13;;;22.70;99.90;;;;;;4945974;28;20053;-36
2023/06/19 00:09:25;;;;;;;6.55;4.70;;;22.70;99.90;;;;;;4962381;28;20063;-36
2023/06/19 00:11:51;;;;;;;6.57;4.25;;;22.70;99.90;;;;;;4962035;28;20097;-35
2023/06/19 00:14:17;;;;;;;5.78;4.20;;;22.70;99.90;;;;;;4963583;28;20145;-35
2023/06/19 00:16:43;;;;;;;6.53;4.30;;;22.60;99.90;;;;;;4958618;28;20548;-35
2023/06/19 00:19:10;;;;;;;6.00;4.15;;;22.70;99.90;;;;;;4964988;28;20042;-35
2023/06/19 00:21:37;;;;;;;6.65;4.40;;;22.60;99.90;;;;;;4962855;28;20047;-35
2023/06/19 00:24:03;;;;;;;6.43;4.18;;;22.70;99.90;;;;;;4960603;28;20520;-36
2023/06/19 00:26:29;;;;;;;5.68;4.40;;;22.60;99.90;;;;;;4960895;28;20046;-35
2023/06/19 00:28:55;;;;;;;5.45;4.03;;;22.60;99.90;;;;;;4961038;28;20046;-36
2023/06/19 00:31:20;;;;;;;5.88;4.10;;;22.60;99.90;;;;;;4963527;28;20078;-36
2023/06/19 00:33:47;;;;;;;6.32;4.63;;;22.60;99.90;;;;;;4966985;28;20479;-35
2023/06/19 00:36:20;;;;;;;9.05;4.75;;;22.60;99.90;;;;;;4965926;28;20134;-35
2023/06/19 00:38:45;;;;;;;;;;;22.60;99.90;;;;;;4963985;28;20488;-36
2023/06/19 00:41:11;;;;;;;5.97;4.18;;;22.60;99.90;;;;;;4966536;28;20008;-36
2023/06/19 00:43:37;;;;;;;6.35;4.50;;;22.70;99.90;;;;;;4965976;28;20054;-36
2023/06/19 00:46:03;;;;;;;5.68;4.35;;;22.60;99.90;;;;;;4950431;28;20077;-35
2023/06/19 00:48:31;;;;;;;6.15;4.68;;;22.60;99.90;;;;;;4969295;28;20055;-35
2023/06/19 00:50:57;;;;;;;11.27;4.95;;;22.60;99.90;;;;;;4976292;28;20054;-35
2023/06/19 00:53:24;;;;;;;6.97;4.68;;;22.60;99.90;;;;;;4969664;28;20100;-35
2023/06/19 00:55:51;;;;;;;5.88;4.55;;;22.60;99.90;;;;;;4967425;28;20062;-36
2023/06/19 00:58:19;;;;;;;7.43;5.18;;;22.60;99.90;;;;;;4969004;28;20138;-35
2023/06/19 01:00:44;;;;;;;7.70;4.35;;;22.60;99.90;;;;;;4965212;28;20792;-36
2023/06/19 01:03:10;;;;;;;5.95;4.03;;;22.60;99.90;;;;;;4967379;28;20141;-35
2023/06/19 01:05:36;;;;;;;7.30;4.53;;;22.60;99.90;;;;;;4965064;28;20047;-35
2023/06/19 01:08:25;;;;;;;6.50;4.53;;;22.60;99.90;;;;;;4965145;28;20062;-34
2023/06/19 01:10:55;;;;;;;6.00;4.75;;;22.60;99.90;;;;;;4965958;28;20058;-36
2023/06/19 01:13:37;;;;;;;5.70;4.43;;;22.60;99.90;;;;;;4967941;28;20058;-36
2023/06/19 01:16:04;;;;;;;5.20;4.13;;;22.60;99.90;;;;;;4964541;28;20058;-35
2023/06/19 01:18:33;;;;;;;7.88;4.53;;;22.60;99.90;;;;;;4966442;28;20055;-36
2023/06/19 01:21:12;;;;;;;11.45;5.03;;;22.60;99.90;;;;;;4964405;28;20521;-35
2023/06/19 01:23:37;;;;;;;6.15;4.55;;;22.60;99.90;;;;;;4947803;28;20051;-35
2023/06/19 01:26:03;;;;;;;7.38;4.38;;;22.60;99.90;;;;;;4963478;28;20531;-36
2023/06/19 01:28:29;;;;;;;7.35;4.53;;;22.60;99.90;;;;;;4964336;28;20137;-35
2023/06/19 01:30:58;;;;;;;6.95;4.18;;;22.60;99.90;;;;;;4967544;28;20448;-36
2023/06/19 01:33:28;;;;;;;7.13;4.40;;;22.60;99.90;;;;;;4960592;28;20343;-35
2023/06/19 01:35:56;;;;;;;8.30;4.47;;;22.60;99.90;;;;;;4966315;28;20465;-36
2023/06/19 01:38:25;;;;;;;6.07;4.35;;;22.60;99.90;;;;;;4963823;28;20055;-34
2023/06/19 01:40:53;;;;;;;9.35;4.60;;;22.60;99.90;;;;;;4964946;28;20054;-35
2023/06/19 01:43:19;;;;;;;7.22;4.40;;;22.60;99.90;;;;;;4964267;28;20046;-35
2023/06/19 01:45:45;;;;;;;5.25;4.10;;;22.60;99.90;;;;;;4965997;28;20051;-35
2023/06/19 01:48:11;;;;;;;6.18;4.53;;;22.60;99.90;;;;;;4966861;28;20168;-36
2023/06/19 01:50:36;;;;;;;6.80;4.57;;;22.60;99.90;;;;;;4959592;28;20146;-36
2023/06/19 01:53:02;;;;;;;5.60;4.35;;;22.50;99.90;;;;;;4963723;28;20150;-35
2023/06/19 01:55:28;;;;;;;8.40;4.68;;;22.50;99.90;;;;;;4965110;28;20508;-35
2023/06/19 01:57:53;;;;;;;5.97;4.50;;;22.50;99.90;;;;;;4968861;28;20051;-36
2023/06/19 02:00:19;;;;;;;6.00;4.20;;;22.50;99.90;;;;;;4965193;28;20047;-35
2023/06/19 02:02:45;;;;;;;6.57;4.10;;;22.40;99.90;;;;;;4964613;28;20057;-35
2023/06/19 02:05:11;;;;;;;6.80;4.32;;;22.40;99.90;;;;;;4964909;28;20043;-35
2023/06/19 02:07:37;;;;;;;4.80;3.75;;;22.30;99.90;;;;;;4961365;28;20045;-35
2023/06/19 02:10:02;;;;;;;5.07;3.78;;;22.30;99.90;;;;;;4963899;28;20149;-34
2023/06/19 02:12:28;;;;;;;5.28;4.10;;;22.30;99.90;;;;;;4959152;28;20140;-35
2023/06/19 02:14:54;;;;;;;6.18;3.88;;;22.20;99.90;;;;;;4966863;28;20055;-36
2023/06/19 02:17:19;;;;;;;6.63;4.55;;;22.20;99.90;;;;;;4965514;28;20051;-35
2023/06/19 02:19:45;;;;;;;6.75;3.97;;;22.20;99.90;;;;;;4968147;28;20060;-36
2023/06/19 02:22:11;;;;;;;6.72;4.25;;;22.10;99.90;;;;;;4968158;28;20043;-43
2023/06/19 02:24:37;;;;;;;7.18;4.75;;;22.10;99.90;;;;;;4956770;28;20416;-36
2023/06/19 02:27:03;;;;;;;7.72;4.90;;;22.00;99.90;;;;;;4960610;28;20051;-36
2023/06/19 02:29:33;;;;;;;7.22;3.95;;;22.00;99.90;;;;;;4965963;28;20609;-36
2023/06/19 02:31:59;;;;;;;6.70;4.68;;;21.90;99.90;;;;;;4966455;28;20108;-35
2023/06/19 02:34:25;;;;;;;5.57;4.18;;;21.90;99.90;;;;;;4965692;28;20046;-35
2023/06/19 02:36:50;;;;;;;5.88;4.10;;;21.90;99.90;;;;;;4960495;28;20043;-35
2023/06/19 02:39:16;;;;;;;7.32;4.38;;;21.80;99.90;;;;;;4962597;28;20055;-37
2023/06/19 02:41:45;;;;;;;12.68;4.65;;;21.70;99.90;;;;;;4964827;28;20564;-37
2023/06/19 02:44:12;;;;;;;6.97;4.43;;;21.70;99.90;;;;;;4967514;28;20049;-36
2023/06/19 02:46:38;;;;;;;6.63;4.43;;;21.70;99.90;;;;;;4968720;28;20062;-35
2023/06/19 02:49:03;;;;;;;6.53;4.72;;;21.60;99.90;;;;;;4967870;28;20416;-35
2023/06/19 02:51:29;;;;;;;5.88;3.67;;;21.60;99.90;;;;;;4965505;28;20511;-36
2023/06/19 02:53:55;;;;;;;5.43;4.00;;;21.50;99.90;;;;;;4959825;28;20042;-36
2023/06/19 02:56:20;;;;;;;6.40;3.72;;;21.50;99.90;;;;;;4963853;28;20074;-35
2023/06/19 02:58:46;;;;;;;8.82;3.85;;;21.50;99.90;;;;;;4966522;28;20078;-35
2023/06/19 03:01:12;;;;;;;5.00;3.00;;;21.50;99.90;;;;;;4962062;28;20089;-35
2023/06/19 03:03:38;;;;;;;5.28;3.13;;;21.40;99.90;;;;;;4966036;28;20113;-35
2023/06/19 03:06:08;;;;;;;4.15;2.78;;;21.40;99.90;;;;;;4965266;28;20069;-35
2023/06/19 03:08:37;;;;;;;6.15;2.85;;;21.30;99.90;;;;;;4960306;28;20066;-34
2023/06/19 03:11:04;;;;;;;4.57;3.03;;;21.20;99.90;;;;;;4965050;28;20086;-36
2023/06/19 03:13:45;;;;;;;4.60;2.90;;;21.20;99.90;;;;;;4957181;28;20059;-35
2023/06/19 03:16:11;;;;;;;4.25;2.63;;;21.10;99.90;;;;;;4960629;28;20560;-34
2023/06/19 03:18:36;;;;;;;4.72;2.80;;;21.00;99.90;;;;;;4960520;28;20054;-36
2023/06/19 03:21:02;;;;;;;5.57;3.47;;;20.90;99.90;;;;;;4963530;28;20111;-36
2023/06/19 03:23:28;;;;;;;7.28;3.45;;;20.80;99.90;;;;;;4959709;28;21151;-36
2023/06/19 03:25:53;;;;;;;5.55;3.10;;;20.70;99.90;;;;;;4961296;28;20055;-35
2023/06/19 03:28:19;;;;;;;5.00;3.08;;;20.70;99.90;;;;;;4960420;28;20043;-35
2023/06/19 03:30:46;;;;;;;8.57;2.78;;;20.60;99.90;;;;;;4966214;28;20077;-35
2023/06/19 03:33:11;;;;;;;6.05;3.20;;;20.60;99.90;;;;;;4964175;28;20046;-36
2023/06/19 03:35:37;;;;;;;7.47;3.13;;;20.50;99.90;;;;;;4964477;28;20050;-35
2023/06/19 03:38:02;;;;;;;5.45;2.97;;;20.50;99.90;;;;;;4965583;28;21038;-35
2023/06/19 03:40:28;;;;;;;5.40;3.00;;;20.40;99.90;;;;;;4964664;28;20055;-35
2023/06/19 03:42:54;;;;;;;4.88;2.95;;;20.40;99.90;;;;;;4967335;28;20082;-35
2023/06/19 03:45:20;;;;;;;7.40;2.63;;;20.30;99.90;;;;;;4966580;28;20043;-35
2023/06/19 03:47:45;;;;;;;4.88;3.03;;;20.30;99.90;;;;;;4959901;28;20061;-35
2023/06/19 03:50:11;;;;;;;5.45;3.00;;;20.30;99.90;;;;;;4964884;28;20051;-35
2023/06/19 03:52:37;;;;;;;5.05;2.58;;;20.20;99.90;;;;;;4965914;28;20051;-36
2023/06/19 03:55:03;;;;;;;4.60;2.10;;;20.20;99.90;;;;;;4962698;28;20046;-34
2023/06/19 03:57:29;;;;;;;3.15;1.80;;;20.10;99.90;;;;;;4966969;28;20050;-34
2023/06/19 03:59:56;;;;;;;4.38;1.90;;;20.10;99.90;;;;;;4965616;28;20050;-35
2023/06/19 04:02:21;;;;;;;2.78;1.52;;;20.10;99.90;;;;;;4968080;28;20074;-35
2023/06/19 04:04:47;;;;;;;4.95;1.90;;;20.10;99.90;;;;;;4965429;28;20067;-36
2023/06/19 04:07:13;;;;;;;3.83;1.70;;;20.10;99.90;;;;;;4967585;28;20113;-36
2023/06/19 04:09:39;;;;;;;3.92;2.03;;;20.00;99.90;;;;;;4960989;28;20066;-35
2023/06/19 04:12:05;;;;;;;4.78;2.17;;;20.00;99.90;;;;;;4964615;28;20058;-35
2023/06/19 04:14:31;;;;;;;3.40;1.75;;;19.90;99.90;;;;;;4966814;28;20058;-35
2023/06/19 04:16:56;;;;;;;4.53;1.88;;;19.90;99.90;;;;;;4965643;28;20038;-36
2023/06/19 04:19:22;;;;;;;5.20;2.40;;;19.90;99.90;;;;;;4953304;28;20086;-36
2023/06/19 04:21:47;;;;;;;6.38;2.78;;;19.90;99.90;;;;;;4972549;28;20055;-36
2023/06/19 04:24:13;;;;;;;3.63;2.13;;;19.90;99.90;;;;;;4970452;28;20066;-35
2023/06/19 04:26:39;;;;;;;3.97;2.03;;;19.90;99.90;;;;;;4967117;28;20146;-35
2023/06/19 04:29:07;;;;;;;5.32;2.20;;;19.90;99.90;;;;;;4964215;28;20054;-35
2023/06/19 04:31:32;;;;;;;4.22;2.33;;;19.90;99.90;;;;;;4970341;28;20110;-35
2023/06/19 04:33:58;;;;;;;5.68;2.28;;;19.90;99.90;;;;;;4968015;28;20046;-35
2023/06/19 04:36:24;;;;;;;3.83;2.25;;;20.00;99.90;;;;;;4970440;28;20062;-34
2023/06/19 04:38:52;;;;;;;3.20;2.03;;;20.00;99.90;;;;;;4969656;28;20493;-35
2023/06/19 04:41:18;;;;;;;5.60;2.10;;;20.00;99.90;;;;;;4971272;28;20142;-36
2023/06/19 04:43:43;;;;;;;3.47;2.00;;;20.00;99.90;;;;;;4964580;28;20070;-35
2023/06/19 04:46:09;;;;;;;4.22;1.90;;;20.10;99.90;;;;;;4971226;28;20078;-34
2023/06/19 04:48:36;;;;;;;3.47;1.98;;;20.10;99.90;;;;;;4947837;28;20531;-34
2023/06/19 04:51:02;;;;;;;2.85;1.90;;;20.10;99.90;;;;;;4968941;28;20101;-34
2023/06/19 04:53:28;;;;;;;3.88;1.80;;;20.10;99.90;;;;;;4964895;28;20062;-35
2023/06/19 04:55:55;;;;;;;4.07;2.60;;;20.20;99.90;;;;;;4973001;28;20061;-34
2023/06/19 04:58:21;;;;;;;4.15;2.45;;;20.20;99.90;;;;;;4969925;28;20132;-35
2023/06/19 05:00:52;;;;;;;5.30;2.67;;;20.30;99.90;;;;;;4967457;28;20058;-35
2023/06/19 05:03:18;;;;;;;3.53;2.30;;;20.30;99.90;;;;;;4970886;28;20062;-36
2023/06/19 05:05:44;;;;;;;5.80;2.35;;;20.30;99.90;;;;;;4969576;28;20042;-35
2023/06/19 05:08:10;;;;;;;3.40;2.28;;;20.40;99.90;;;;;;4975543;28;20051;-36
2023/06/19 05:10:35;;;;;;;5.95;2.60;;;20.40;99.90;;;;;;4962655;28;20050;-36
2023/06/19 05:13:01;;;;;;;4.15;2.45;;;20.40;99.90;;;;;;4968495;28;20047;-34
2023/06/19 05:15:27;;;;;;;4.80;2.35;;;20.40;99.90;;;;;;4963239;28;20054;-34
2023/06/19 05:17:53;;;;;;;5.07;2.28;;;20.40;99.90;;;;;;4969057;28;20134;-34
2023/06/19 05:20:20;;;;;;;3.90;2.20;;;20.50;99.90;;;;;;4965844;28;20193;-34
2023/06/19 05:22:45;;;;;;;3.83;2.13;;;20.50;99.90;;;;;;4965983;28;20456;-34
2023/06/19 05:25:11;;;;;;;4.43;2.20;;;20.60;99.90;;;;;;4967950;28;20062;-35
2023/06/19 05:27:37;;;;;;;3.45;2.15;;;20.80;99.90;;;;;;4961522;28;20423;-34
2023/06/19 05:30:04;;;;;;;3.88;2.38;;;20.90;99.90;;;;;;4965592;28;20120;-35
2023/06/19 05:32:30;;;;;;;6.68;2.35;;;21.00;99.90;;;;;;4966074;28;20066;-35
2023/06/19 05:34:56;;;;;;;4.60;2.40;;;21.00;99.90;;;;;;4963389;28;21525;-35
2023/06/19 05:37:22;;;;;;;7.13;2.30;;;21.10;99.90;;;;;;4965589;28;20047;-35
2023/06/19 05:39:48;;;;;;;7.53;3.30;;;21.30;99.90;;;;;;4964152;28;20517;-35
2023/06/19 05:42:14;;;;;;;4.78;3.20;;;21.40;99.90;;;;;;4963275;28;20157;-35
2023/06/19 05:44:40;;;;;;;6.13;3.47;;;21.40;99.90;;;;;;4958755;28;20408;-35
2023/06/19 05:47:06;;;;;;;6.82;5.20;;;21.40;99.90;;;;;;4962867;28;20050;-35
2023/06/19 05:49:31;;;;;;;7.68;4.75;;;21.20;99.90;;;;;;4963656;28;20390;-35
2023/06/19 05:52:00;;;;;;;7.13;5.30;;;21.10;99.90;;;;;;4963393;28;20137;-35
2023/06/19 05:54:26;;;;;;;8.60;5.75;;;21.00;99.90;;;;;;4968056;28;20043;-35
2023/06/19 05:56:53;;;;;;;9.65;6.45;;;21.00;99.90;;;;;;4965901;28;20500;-35
2023/06/19 05:59:19;;;;;;;8.15;5.75;;;21.00;99.90;;;;;;4930121;28;20047;-35
2023/06/19 06:01:44;;;;;;;8.95;5.63;;;20.90;99.90;;;;;;4961408;28;20111;-35
2023/06/19 06:04:10;;;;;;;9.23;5.38;;;20.90;99.90;;;;;;4962217;28;20062;-35
2023/06/19 06:06:36;;;;;;;8.10;6.22;;;20.90;99.90;;;;;;4959815;28;20043;-35
2023/06/19 06:09:01;;;;;;;9.20;6.07;;;20.90;99.90;;;;;;4962919;28;20046;-36
2023/06/19 06:11:27;;;;;;;10.88;6.82;;;20.90;99.90;;;;;;4960431;28;20103;-35
2023/06/19 06:13:52;;;;;;;13.15;6.60;;;20.80;99.90;;;;;;4961644;28;20086;-35
2023/06/19 06:16:18;;;;;;;10.63;6.10;;;20.70;99.90;;;;;;4963276;28;20126;-35
2023/06/19 06:18:45;;;;;;;11.55;6.18;;;20.60;99.90;;;;;;4960869;28;20192;-35
2023/06/19 06:21:12;;;;;;;8.32;5.45;;;20.50;99.90;;;;;;4945975;28;20047;-35
2023/06/19 06:23:40;;;;;;;7.25;5.00;;;20.40;99.90;;;;;;4964425;28;20154;-35
2023/06/19 06:26:05;;;;;;;7.68;4.75;;;20.40;99.90;;;;;;4947911;28;20057;-35
2023/06/19 06:28:31;;;;;;;10.50;5.20;;;20.30;99.90;;;;;;4968796;28;20055;-35
2023/06/19 06:30:57;;;;;;;8.15;5.32;;;20.30;99.90;;;;;;4965276;28;21434;-35
2023/06/19 06:33:23;;;;;;;8.30;4.60;;;20.20;99.90;;;;;;4966017;28;20047;-35
2023/06/19 06:35:49;;;;;;;10.20;4.25;;;20.30;99.90;;;;;;4965621;28;20070;-35
2023/06/19 06:38:14;;;;;;;7.43;4.28;;;20.20;99.90;;;;;;4960998;28;20050;-35
2023/06/19 06:40:41;;;;;;;5.43;3.70;;;20.30;99.90;;;;;;4965942;28;20262;-35
2023/06/19 06:43:07;;;;;;;5.78;3.78;;;20.50;99.90;;;;;;4947069;28;20416;-35
2023/06/19 06:45:32;;;;;;;6.85;3.75;;;20.50;99.90;;;;;;4956778;28;20055;-35
2023/06/19 06:47:58;;;;;;;5.72;3.40;;;20.60;99.90;;;;;;4966053;28;20051;-35
2023/06/19 06:50:24;;;;;;;4.35;2.67;;;20.70;99.90;;;;;;4963518;28;20062;-35
2023/06/19 06:52:49;;;;;;;3.30;2.08;;;20.80;99.90;;;;;;4960635;28;20086;-36
2023/06/19 06:55:15;;;;;;;3.40;2.15;;;20.80;99.90;;;;;;4964966;28;20054;-35
2023/06/19 06:57:40;;;;;;;4.22;2.30;;;20.80;99.90;;;;;;4962289;28;20110;-35
2023/06/19 07:00:09;;;;;;;7.90;2.80;;;20.80;99.90;;;;;;4958320;28;20050;-35
2023/06/19 07:02:35;;;;;;;6.07;2.90;;;20.80;99.90;;;;;;4956866;28;20533;-35
2023/06/19 07:05:00;;;;;;;4.35;2.40;;;20.80;99.90;;;;;;4961400;28;20062;-35
2023/06/19 07:07:26;;;;;;;3.92;2.65;;;20.80;99.90;;;;;;4962993;28;20080;-35
2023/06/19 07:09:52;;;;;;;4.80;3.13;;;20.80;99.90;;;;;;4965257;28;20070;-35
2023/06/19 07:12:17;;;;;;;4.85;3.40;;;20.70;99.90;;;;;;4964569;28;20145;-35
2023/06/19 07:14:43;;;;;;;7.28;4.03;;;20.60;99.90;;;;;;4963335;28;20513;-35
2023/06/19 07:17:09;;;;;;;8.20;3.78;;;20.60;99.90;;;;;;4961160;28;20047;-35
2023/06/19 07:19:34;;;;;;;6.55;3.85;;;20.70;99.90;;;;;;4963834;28;20099;-35
2023/06/19 07:22:00;;;;;;;4.30;3.20;;;20.70;99.90;;;;;;4960331;28;20054;-35
2023/06/19 07:24:26;;;;;;;3.78;2.40;;;20.70;99.90;;;;;;4964304;28;20054;-35
2023/06/19 07:26:51;;;;;;;4.40;3.08;;;20.70;99.90;;;;;;4961793;28;20054;-35
2023/06/19 07:29:17;;;;;;;5.53;3.00;;;20.70;99.90;;;;;;4964748;28;20055;-35
2023/06/19 07:31:43;;;;;;;4.90;3.25;;;20.80;99.90;;;;;;4964158;28;20476;-35
2023/06/19 07:34:09;;;;;;;4.30;2.83;;;20.80;99.90;;;;;;4963727;28;20047;-35
2023/06/19 07:36:34;;;;;;;4.47;3.00;;;20.80;99.90;;;;;;4960959;28;20124;-35
2023/06/19 07:39:00;;;;;;;5.20;3.28;;;20.80;99.90;;;;;;4962728;28;20054;-36
2023/06/19 07:41:25;;;;;;;5.85;3.30;;;20.80;99.90;;;;;;4970380;28;20055;-35
2023/06/19 07:43:51;;;;;;;4.88;2.95;;;20.80;99.90;;;;;;4959286;28;20065;-35
2023/06/19 07:46:17;;;;;;;5.40;3.28;;;20.90;99.90;;;;;;4961839;28;20424;-35
2023/06/19 07:48:42;;;;;;;4.38;3.00;;;20.90;99.90;;;;;;4964609;28;20058;-36
2023/06/19 07:51:08;;;;;;;5.25;3.78;;;21.00;99.90;;;;;;4959235;28;20061;-35
2023/06/19 07:53:34;;;;;;;5.88;4.03;;;21.10;99.90;;;;;;4958220;28;20081;-36
2023/06/19 07:55:59;;;;;;;5.10;4.60;;;21.40;99.90;;;;;;4958117;28;20428;-34
2023/06/19 07:58:25;;;;;;;7.28;4.43;;;21.50;99.90;;;;;;4966961;28;20062;-35
2023/06/19 08:00:51;;;;;;;5.90;4.40;;;21.50;99.90;;;;;;4963501;28;20145;-35
2023/06/19 08:03:17;;;;;;;6.00;4.60;;;21.50;99.90;;;;;;4961916;28;20102;-35
2023/06/19 08:05:42;;;;;;;5.65;4.28;;;21.60;99.90;;;;;;4959079;28;20549;-35
2023/06/19 08:08:08;;;;;;;5.43;3.70;;;21.60;99.90;;;;;;4963903;28;20042;-36
2023/06/19 08:10:34;;;;;;;5.28;3.85;;;21.60;99.90;;;;;;4960334;28;20078;-35
2023/06/19 08:12:59;;;;;;;5.18;4.18;;;21.60;99.90;;;;;;4958873;28;20047;-36
2023/06/19 08:15:25;;;;;;;5.38;4.22;;;21.60;99.90;;;;;;4957329;28;20066;-35
2023/06/19 08:17:50;;;;;;;5.38;4.15;;;21.60;99.90;;;;;;4957975;28;20152;-36
2023/06/19 08:20:16;;;;;;;7.40;3.42;;;21.70;99.90;;;;;;4958373;28;20062;-35
2023/06/19 08:22:42;;;;;;;5.18;3.95;;;21.70;99.90;;;;;;4958684;28;20078;-34
2023/06/19 08:25:08;;;;;;;5.32;3.60;;;21.70;99.90;;;;;;4956287;28;20069;-37
2023/06/19 08:27:33;;;;;;;5.22;3.22;;;21.70;99.90;;;;;;4961472;28;20086;-36
2023/06/19 08:29:59;;;;;;;5.10;3.10;;;21.80;99.90;;;;;;4959668;28;20066;-36
2023/06/19 08:32:25;;;;;;;5.75;3.50;;;21.80;99.90;;;;;;4963315;28;20059;-37
2023/06/19 08:34:51;;;;;;;5.30;3.90;;;21.80;99.90;;;;;;4961046;28;20066;-35
2023/06/19 08:37:18;;;;;;;5.00;3.15;;;21.80;99.90;;;;;;4961469;28;20054;-35
2023/06/19 08:39:44;;;;;;;5.20;3.30;;;21.80;99.90;;;;;;4961281;28;20065;-35
2023/06/19 08:42:09;;;;;;;5.72;3.55;;;21.80;99.90;;;;;;4963521;28;20055;-35
2023/06/19 08:44:37;;;;;;;7.95;3.45;;;21.80;99.90;;;;;;4957324;28;20079;-35
2023/06/19 08:47:04;;;;;;;5.70;3.33;;;21.90;99.90;;;;;;4962386;28;20051;-35
2023/06/19 08:49:31;;;;;;;7.97;3.85;;;21.80;99.90;;;;;;4961818;28;20047;-35
2023/06/19 08:51:57;;;;;;;7.20;3.60;;;21.80;99.90;;;;;;4960175;28;20106;-36
2023/06/19 08:54:22;;;;;;;5.72;3.40;;;21.90;99.90;;;;;;4961274;28;20051;-36
2023/06/19 08:56:48;;;;;;;6.13;3.60;;;22.10;99.90;;;;;;4957479;28;20449;-35
2023/06/19 08:59:16;;;;;;;6.00;3.97;;;22.10;99.90;;;;;;4960039;28;20132;-35
2023/06/19 09:01:52;;;;;;;7.25;4.72;;;22.20;99.90;;;;;;4959853;28;20110;-34
2023/06/19 09:04:24;;;;;;;6.28;4.15;;;22.10;99.90;;;;;;4962906;28;20070;-37
2023/06/19 09:06:56;;;;;;;10.68;6.00;;;22.00;99.90;;;;;;4965979;28;20055;-35
2023/06/19 09:09:24;;;;;;;8.57;5.07;;;21.90;99.90;;;;;;4964894;28;20058;-35
2023/06/19 09:12:11;;;;;;;8.63;4.93;;;21.90;99.90;;;;;;4969579;28;20078;-36
2023/06/19 09:14:39;;;;;;;8.90;4.88;;;21.90;99.90;;;;;;4966929;28;20047;-35
2023/06/19 09:17:19;;;;;;;9.20;5.53;;;21.90;99.90;;;;;;4970015;28;20054;-34
2023/06/19 09:19:48;;;;;;;9.25;5.63;;;21.80;99.90;;;;;;4964396;28;20495;-34
2023/06/19 09:22:18;;;;;;;10.57;6.00;;;21.60;99.90;;;;;;4967709;28;20532;-34
2023/06/19 09:24:44;;;;;;;10.88;6.50;;;21.60;99.90;;;;;;4956905;28;20498;-34
2023/06/19 09:27:19;;;;;;;8.85;5.40;;;21.50;99.90;;;;;;4949797;28;20043;-34
2023/06/19 09:29:49;;;;;;;10.23;4.18;;;21.60;99.90;;;;;;4969105;28;20122;-34
2023/06/19 09:32:20;;;;;;;9.00;4.78;;;21.50;99.90;;;;;;4963830;28;20141;-34
2023/06/19 09:34:47;;;;;;;9.10;5.15;;;21.50;99.90;;;;;;4965461;28;20047;-34
2023/06/19 09:37:13;;;;;;;7.25;4.57;;;21.60;99.90;;;;;;4964885;28;20047;-34
2023/06/19 09:39:40;;;;;;;10.20;4.72;;;21.70;99.90;;;;;;4965495;28;20145;-34
2023/06/19 09:42:09;;;;;;;7.70;4.40;;;21.70;99.90;;;;;;4959394;28;20075;-34
2023/06/19 09:44:43;;;;;;;9.77;5.53;;;21.80;99.90;;;;;;4962999;28;20055;-34
2023/06/19 09:47:22;;;;;;;9.88;5.07;;;21.90;99.90;;;;;;4964242;28;20038;-35
2023/06/19 09:49:59;;;;;;;8.38;4.95;;;21.90;99.90;;;;;;4960205;28;20039;-34
2023/06/19 09:52:25;;;;;;;8.02;4.75;;;21.90;99.90;;;;;;4960484;28;20645;-34
2023/06/19 09:54:52;;;;;;;8.13;4.95;;;22.00;99.90;;;;;;4957554;28;20066;-34
2023/06/19 09:57:18;;;;;;;9.02;4.72;;;22.00;99.90;;;;;;4965290;28;20493;-34
2023/06/19 09:59:49;;;;;;;7.63;5.50;;;21.90;99.90;;;;;;4967348;28;20147;-34
2023/06/19 10:02:15;;;;;;;8.07;5.40;;;21.80;99.90;;;;;;4966013;28;20054;-34
2023/06/19 10:04:45;;;;;;;9.82;4.88;;;21.90;99.90;;;;;;4963405;28;20137;-34
2023/06/19 10:07:27;;;;;;;7.20;4.40;;;21.80;99.90;;;;;;4968361;28;20048;-34
2023/06/19 10:09:56;;;;;;;;;;;21.80;99.90;;;;;;4962157;28;20150;-34
2023/06/19 10:12:22;;;;;;;7.68;4.38;;;21.80;99.90;;;;;;4960588;28;19918;-34
2023/06/19 10:14:50;;;;;;;8.68;4.70;;;21.90;99.90;;;;;;4962514;28;20057;-35
2023/06/19 10:17:17;;;;;;;6.85;4.90;;;22.00;99.90;;;;;;4951937;28;21323;-34
2023/06/19 10:19:50;;;;;;;8.07;5.63;;;22.20;99.90;;;;;;4960231;28;21412;-34
2023/06/19 10:22:22;;;;;;;7.25;4.72;;;22.20;99.90;;;;;;4965328;28;20489;-34
2023/06/19 10:24:50;;;;;;;11.93;5.50;;;22.10;99.90;;;;;;4954753;28;20059;-34
2023/06/19 10:27:22;;;;;;;8.45;4.88;;;21.80;99.90;;;;;;4961320;28;20447;-34
2023/06/19 10:29:53;;;;;;;7.88;4.68;;;21.60;99.90;;;;;;4964147;28;20053;-35
2023/06/19 10:32:19;;;;;;;8.05;5.63;;;21.50;99.90;;;;;;4968800;28;20043;-35
2023/06/19 10:34:49;;;;;;;9.18;6.35;;;21.50;99.90;;;;;;4969858;28;20570;-35
2023/06/19 10:37:17;;;;;;;7.60;5.22;;;21.50;99.90;;;;;;4963890;28;20504;-35
2023/06/19 10:39:44;;;;;;;9.55;4.88;;;21.60;99.90;;;;;;4963925;28;20050;-35
2023/06/19 10:42:10;;;;;;;11.75;5.25;;;21.50;99.90;;;;;;4957093;28;20110;-35
2023/06/19 10:44:37;;;;;;;8.05;5.28;;;21.60;99.90;;;;;;4961351;28;20113;-35
2023/06/19 10:47:04;;;;;;;8.90;5.20;;;21.80;99.90;;;;;;4960392;28;20070;-37
2023/06/19 10:49:30;;;;;;;10.25;5.75;;;21.90;99.90;;;;;;4959185;28;20051;-35
2023/06/19 10:51:59;;;;;;;8.43;5.13;;;21.90;99.90;;;;;;4956275;28;20149;-36
2023/06/19 10:54:25;;;;;;;9.32;6.10;;;22.00;99.90;;;;;;4964316;28;20649;-36
2023/06/19 10:56:51;;;;;;;7.82;5.95;;;22.10;99.90;;;;;;4960182;28;20109;-35
2023/06/19 10:59:18;;;;;;;10.60;6.75;;;22.20;99.90;;;;;;4961546;28;20484;-36
2023/06/19 11:01:46;;;;;;;9.52;6.00;;;22.40;99.90;;;;;;4962019;28;20073;-36
2023/06/19 11:04:13;;;;;;;9.32;5.53;;;22.50;99.90;;;;;;4965943;28;20046;-35
2023/06/19 11:06:40;;;;;;;9.45;6.57;;;22.60;99.90;;;;;;4959877;28;20613;-35
2023/06/19 11:09:07;;;;;;;7.97;5.80;;;22.70;99.90;;;;;;4959250;28;20058;-36
2023/06/19 11:11:45;;;;;;;8.57;6.28;;;22.80;99.90;;;;;;4964479;28;20551;-36
2023/06/19 11:14:15;;;;;;;8.60;6.32;;;22.80;99.90;;;;;;4963833;28;20105;-34
2023/06/19 11:16:43;;;;;;;11.95;7.38;;;22.80;99.90;;;;;;4961700;28;20114;-36
2023/06/19 11:19:15;;;;;;;11.30;6.43;;;22.80;99.90;;;;;;4963356;28;20058;-35
2023/06/19 11:21:46;;;;;;;8.07;6.22;;;22.80;99.90;;;;;;4965332;28;20046;-35
2023/06/19 11:24:13;;;;;;;9.25;6.53;;;22.90;99.90;;;;;;4943117;28;20125;-35
2023/06/19 11:26:49;;;;;;;8.32;6.70;;;23.20;99.90;;;;;;4961219;28;20050;-35
2023/06/19 11:29:16;;;;;;;10.95;6.85;;;23.30;99.90;;;;;;4962114;28;20425;-35
2023/06/19 11:31:42;;;;;;;8.45;6.28;;;23.40;99.90;;;;;;4940916;28;20051;-36
2023/06/19 11:34:07;;;;;;;9.63;7.10;;;23.60;99.90;;;;;;4964840;28;20456;-36
2023/06/19 11:36:37;;;;;;;8.77;5.80;;;23.70;99.90;;;;;;4964686;28;20090;-35
2023/06/19 11:39:05;;;;;;;10.82;6.55;;;23.90;99.90;;;;;;4960872;28;20050;-35
2023/06/19 11:41:31;;;;;;;12.07;7.13;;;24.00;99.90;;;;;;4964006;28;20054;-35
2023/06/19 11:44:09;;;;;;;12.30;6.63;;;24.10;99.90;;;;;;4965785;28;20062;-35
2023/06/19 11:46:35;;;;;;;12.63;6.15;;;24.10;99.90;;;;;;4965822;28;20151;-36
2023/06/19 11:49:16;;;;;;;8.65;6.10;;;23.90;99.90;;;;;;4959143;28;20492;-35
2023/06/19 11:51:42;;;;;;;11.60;6.33;;;23.90;99.90;;;;;;4953351;28;20082;-37
2023/06/19 11:54:09;;;;;;;12.13;6.75;;;24.00;99.90;;;;;;4968142;28;20421;-35
2023/06/19 11:56:36;;;;;;;10.82;6.60;;;24.10;99.90;;;;;;4963785;28;20071;-35
2023/06/19 11:59:03;;;;;;;9.07;6.45;;;24.30;99.90;;;;;;4948034;28;20070;-35
2023/06/19 12:01:29;;;;;;;9.57;6.03;;;24.20;99.90;;;;;;4961818;28;20137;-36
2023/06/19 12:03:55;;;;;;;9.95;6.57;;;24.30;99.90;;;;;;4967603;28;20043;-35
2023/06/19 12:06:21;;;;;;;11.85;6.35;;;24.10;99.90;;;;;;4966216;28;20883;-37
2023/06/19 12:08:47;;;;;;;11.10;6.18;;;24.10;99.90;;;;;;4966486;28;20043;-35
2023/06/19 12:11:13;;;;;;;9.73;7.28;;;23.90;99.90;;;;;;4964341;28;20070;-36
2023/06/19 12:13:40;;;;;;;10.10;6.85;;;23.70;99.90;;;;;;4955308;28;20461;-35
2023/06/19 12:16:07;;;;;;;33.45;7.60;;;23.90;99.90;;;;;;4959856;28;20069;-36
2023/06/19 12:18:33;;;;;;;11.48;7.95;;;24.00;99.90;;;;;;4955103;28;20121;-36
2023/06/19 12:20:58;;;;;;;9.88;6.85;;;24.20;99.90;;;;;;4960816;28;20525;-37
2023/06/19 12:23:24;;;;;;;11.35;7.05;;;24.20;99.90;;;;;;4955495;28;20059;-36
2023/06/19 12:25:50;;;;;;;9.40;5.82;;;24.30;99.90;;;;;;4962835;28;20061;-36
2023/06/19 12:28:18;;;;;;;12.40;6.47;;;24.50;99.90;;;;;;4964434;28;20420;-36
2023/06/19 12:30:51;;;;;;;9.93;6.53;;;24.60;99.90;;;;;;4964191;28;20058;-36
2023/06/19 12:33:17;;;;;;;12.82;6.97;;;24.80;99.90;;;;;;4967295;28;20046;-35
2023/06/19 12:35:44;;;;;;;12.25;8.05;;;25.10;99.90;;;;;;4962400;28;20062;-37
2023/06/19 12:38:10;;;;;;;12.43;7.43;;;25.30;99.90;;;;;;4963826;28;20043;-35
2023/06/19 12:40:37;;;;;;;10.60;7.68;;;25.30;99.90;;;;;;4969591;28;20050;-38
2023/06/19 12:43:03;;;;;;;10.60;7.07;;;25.20;99.90;;;;;;4964380;28;20531;-35
2023/06/19 12:45:29;;;;;;;9.05;7.07;;;25.10;99.90;;;;;;4969667;28;20104;-35